createdAt,value
2022-11-04T00:01:04.809Z,6.88
2022-11-04T00:04:07.835Z,6.25
2022-11-04T00:07:30.006Z,7.77
2022-11-04T00:10:50.813Z,7.47
2022-11-04T00:13:53.135Z,7.88
2022-11-04T00:17:13.844Z,7.25
2022-11-04T00:20:34.774Z,6.85
2022-11-04T00:23:55.479Z,6.50
2022-11-04T00:27:16.986Z,5.70
2022-11-04T00:30:19.181Z,6.53
2022-11-04T00:33:27.436Z,7.65
2022-11-04T00:36:29.743Z,6.68
2022-11-04T00:39:32.069Z,5.63
2022-11-04T00:42:34.313Z,7.17
2022-11-04T00:45:36.558Z,7.90
2022-11-04T00:48:38.784Z,5.65
2022-11-04T00:51:41.085Z,6.35
2022-11-04T00:54:43.303Z,6.10
2022-11-04T00:57:45.558Z,6.23
2022-11-04T01:00:47.895Z,6.45
2022-11-04T01:03:52.807Z,6.90
2022-11-04T01:06:55.051Z,6.15
2022-11-04T01:09:57.297Z,6.43
2022-11-04T01:12:59.584Z,6.23
2022-11-04T01:16:03.663Z,6.75
2022-11-04T01:19:06.371Z,6.85
2022-11-04T01:22:08.643Z,6.00
2022-11-04T01:25:10.918Z,5.93
2022-11-04T01:28:13.220Z,6.77
2022-11-04T01:31:18.830Z,6.38
2022-11-04T01:34:21.442Z,5.97
2022-11-04T01:37:23.594Z,6.65
2022-11-04T01:40:26.901Z,6.47
2022-11-04T01:43:52.607Z,6.23
2022-11-04T01:46:54.987Z,6.93
2022-11-04T01:50:08.461Z,5.93
2022-11-04T01:53:19.027Z,6.25
2022-11-04T01:56:21.660Z,6.30
2022-11-04T01:59:30.395Z,6.70
2022-11-04T02:02:32.913Z,6.65
2022-11-04T02:05:35.844Z,6.75
2022-11-04T02:08:39.580Z,6.53
2022-11-04T02:12:00.557Z,5.53
2022-11-04T02:15:03.536Z,5.90
2022-11-04T02:18:11.199Z,6.03
2022-11-04T02:21:41.682Z,5.88
2022-11-04T02:24:58.768Z,5.82
2022-11-04T02:28:17.593Z,5.00
2022-11-04T02:31:28.776Z,6.70
2022-11-04T02:34:49.654Z,6.72
2022-11-04T02:38:11.428Z,6.30
2022-11-04T02:41:22.582Z,6.45
2022-11-04T02:44:50.636Z,6.53
2022-11-04T02:48:15.630Z,7.13
2022-11-04T02:51:39.662Z,5.90
2022-11-04T02:54:44.760Z,5.80
2022-11-04T02:57:50.608Z,5.90
2022-11-04T03:00:55.718Z,6.13
2022-11-04T03:04:06.504Z,5.67
2022-11-04T03:07:14.909Z,5.03
2022-11-04T03:10:23.726Z,6.38
2022-11-04T03:13:32.663Z,7.03
2022-11-04T03:16:41.154Z,7.50
2022-11-04T03:20:06.069Z,6.23
2022-11-04T03:23:11.142Z,6.25
2022-11-04T03:26:23.561Z,6.25
2022-11-04T03:29:56.822Z,5.53
2022-11-04T03:33:04.778Z,5.70
2022-11-04T03:36:08.938Z,6.07
2022-11-04T03:39:11.214Z,5.57
2022-11-04T03:42:21.032Z,6.53
2022-11-04T03:45:24.243Z,5.82
2022-11-04T03:48:26.690Z,4.93
2022-11-04T03:51:28.931Z,7.27
2022-11-04T03:54:35.637Z,6.00
2022-11-04T03:57:46.368Z,5.68
2022-11-04T04:00:59.461Z,5.72
2022-11-04T04:04:06.400Z,5.53
2022-11-04T04:07:31.704Z,5.93
2022-11-04T04:10:42.573Z,5.03
2022-11-04T04:14:11.476Z,6.80
2022-11-04T04:17:34.456Z,5.65
2022-11-04T04:20:38.853Z,5.10
2022-11-04T04:24:02.693Z,5.17
2022-11-04T04:27:23.599Z,5.93
2022-11-04T04:30:26.460Z,5.57
2022-11-04T04:33:28.846Z,5.10
2022-11-04T04:36:35.461Z,6.93
2022-11-04T04:40:03.969Z,6.13
2022-11-04T04:43:24.904Z,6.78
2022-11-04T04:46:29.282Z,6.95
2022-11-04T04:49:35.272Z,5.35
2022-11-04T04:52:41.289Z,5.80
2022-11-04T04:55:43.471Z,5.53
2022-11-04T04:58:45.710Z,5.22
2022-11-04T05:01:48.120Z,6.22
2022-11-04T05:04:50.401Z,6.03
2022-11-04T05:07:52.655Z,5.67
2022-11-04T05:10:54.850Z,5.47
2022-11-04T05:13:57.085Z,5.93
2022-11-04T05:16:59.280Z,5.53
2022-11-04T05:20:01.485Z,5.93
2022-11-04T05:23:03.986Z,5.60
2022-11-04T05:26:06.430Z,5.77
2022-11-04T05:29:09.896Z,6.45
2022-11-04T05:32:12.138Z,5.63
2022-11-04T05:36:17.955Z,5.20
2022-11-04T05:39:20.154Z,6.00
2022-11-04T05:42:22.363Z,5.50
2022-11-04T05:45:24.594Z,5.00
2022-11-04T05:48:27.748Z,5.78
2022-11-04T05:51:30.706Z,6.10
2022-11-04T05:54:32.919Z,5.97
2022-11-04T05:57:35.739Z,5.80
2022-11-04T06:00:38.050Z,7.97
2022-11-04T06:03:40.267Z,5.80
2022-11-04T06:06:42.789Z,7.68
2022-11-04T06:09:45.185Z,8.37
2022-11-04T06:12:47.701Z,7.60
2022-11-04T06:15:50.000Z,8.85
2022-11-04T06:18:52.826Z,7.43
2022-11-04T06:21:55.054Z,6.93
2022-11-04T06:24:57.257Z,7.73
2022-11-04T06:27:59.588Z,8.87
2022-11-04T06:31:04.134Z,9.27
2022-11-04T06:34:06.413Z,9.23
2022-11-04T06:37:09.346Z,7.38
2022-11-04T06:40:11.849Z,7.63
2022-11-04T06:43:14.107Z,9.90
2022-11-04T06:46:27.370Z,10.75
2022-11-04T06:49:29.678Z,10.23
2022-11-04T06:52:31.896Z,8.77
2022-11-04T06:55:34.145Z,9.07
2022-11-04T06:58:36.347Z,9.63
2022-11-04T07:01:38.620Z,9.90
2022-11-04T07:04:40.992Z,9.27
2022-11-04T07:07:43.221Z,9.43
2022-11-04T07:10:45.565Z,9.70
2022-11-04T07:13:49.037Z,12.37
2022-11-04T07:16:51.586Z,9.32
2022-11-04T07:19:53.905Z,9.52
2022-11-04T07:22:56.151Z,10.88
2022-11-04T07:26:03.488Z,10.63
2022-11-04T07:29:06.803Z,12.23
2022-11-04T07:32:09.252Z,14.02
2022-11-04T07:35:11.676Z,13.48
2022-11-04T07:38:13.969Z,12.95
2022-11-04T07:41:18.083Z,14.33
2022-11-04T07:44:23.031Z,15.07
2022-11-04T07:47:25.505Z,16.70
2022-11-04T07:50:28.144Z,15.77
2022-11-04T07:53:30.950Z,17.90
2022-11-04T07:56:33.179Z,16.07
2022-11-04T07:59:35.379Z,16.57
2022-11-04T08:02:37.773Z,18.33
2022-11-04T08:05:40.160Z,18.00
2022-11-04T08:08:43.718Z,17.73
2022-11-04T08:11:46.068Z,16.40
2022-11-04T08:14:48.511Z,16.10
2022-11-04T08:17:50.820Z,16.73
2022-11-04T08:20:53.761Z,16.75
2022-11-04T08:23:56.353Z,16.98
2022-11-04T08:26:58.758Z,18.30
2022-11-04T08:30:01.247Z,17.07
2022-11-04T08:33:05.429Z,17.42
2022-11-04T08:36:19.530Z,18.63
2022-11-04T08:39:22.164Z,18.60
2022-11-04T08:42:49.547Z,16.97
2022-11-04T08:45:51.947Z,16.87
2022-11-04T08:48:54.190Z,18.25
2022-11-04T08:51:59.671Z,17.35
2022-11-04T08:55:01.992Z,18.70
2022-11-04T08:58:04.476Z,17.77
2022-11-04T09:01:07.533Z,17.40
2022-11-04T09:04:12.144Z,18.80
2022-11-04T09:07:14.655Z,17.90
2022-11-04T09:10:17.627Z,17.73
2022-11-04T09:13:19.830Z,18.60
2022-11-04T09:16:22.496Z,18.93
2022-11-04T09:19:24.751Z,20.50
2022-11-04T09:22:28.023Z,20.83
2022-11-04T09:25:30.675Z,20.73
2022-11-04T09:28:32.898Z,20.13
2022-11-04T09:36:19.525Z,17.88
2022-11-04T09:39:29.038Z,20.67
2022-11-04T09:42:37.018Z,18.92
2022-11-04T09:46:10.182Z,19.43
2022-11-04T09:49:16.857Z,19.57
2022-11-04T09:52:26.056Z,19.42
2022-11-04T09:55:40.189Z,19.17
2022-11-04T09:58:43.043Z,22.10
2022-11-04T10:06:43.084Z,22.57
2022-11-04T10:27:39.311Z,19.53
2022-11-04T10:31:35.516Z,21.48
2022-11-04T10:34:55.110Z,20.38
2022-11-04T10:38:14.048Z,23.92
2022-11-04T10:47:01.081Z,21.23
2022-11-04T10:50:28.477Z,17.15
2022-11-04T10:53:33.608Z,18.98
2022-11-04T10:57:02.664Z,17.92
2022-11-04T11:00:06.779Z,18.33
2022-11-04T11:03:34.949Z,19.23
2022-11-04T11:07:00.714Z,19.25
2022-11-04T11:10:07.490Z,19.48
2022-11-04T11:18:04.981Z,22.43
2022-11-04T11:21:21.279Z,18.53
2022-11-04T11:24:30.746Z,21.50
2022-11-04T11:27:47.910Z,19.88
2022-11-04T11:31:04.416Z,22.02
2022-11-04T11:34:16.566Z,18.50
2022-11-04T11:37:25.892Z,20.33
2022-11-04T11:40:43.822Z,20.67
2022-11-04T11:44:04.757Z,19.58
2022-11-04T11:47:20.992Z,16.60
2022-11-04T11:50:32.606Z,19.00
2022-11-04T11:53:38.400Z,19.93
2022-11-04T11:57:14.231Z,21.83
2022-11-04T12:00:37.010Z,18.80
2022-11-04T12:11:11.075Z,21.20
2022-11-04T12:14:24.558Z,20.00
2022-11-04T12:18:11.215Z,18.90
2022-11-04T12:21:20.046Z,23.52
2022-11-04T12:24:56.264Z,22.43
2022-11-04T12:29:04.521Z,20.80
2022-11-04T12:32:46.746Z,20.25
2022-11-04T12:36:21.809Z,18.70
2022-11-04T12:39:29.256Z,20.33
2022-11-04T12:43:54.134Z,24.53
2022-11-04T12:47:29.075Z,21.73
2022-11-04T12:50:38.735Z,23.67
2022-11-04T12:54:05.122Z,24.02
2022-11-04T12:57:18.039Z,22.67
2022-11-04T13:00:24.722Z,21.80
2022-11-04T13:03:48.788Z,19.77
2022-11-04T13:17:06.818Z,25.90
2022-11-04T13:24:30.460Z,21.73
2022-11-04T13:27:45.083Z,22.02
2022-11-04T13:30:58.813Z,26.40
2022-11-04T13:34:23.441Z,22.90
2022-11-04T13:37:32.715Z,22.50
2022-11-04T13:40:52.735Z,27.40
2022-11-04T13:44:05.715Z,27.65
2022-11-04T13:47:21.742Z,25.63
2022-11-04T13:50:37.256Z,21.85
2022-11-04T13:53:43.992Z,23.53
2022-11-04T13:56:46.253Z,25.03
2022-11-04T14:00:07.202Z,22.50
2022-11-04T14:03:21.754Z,20.83
2022-11-04T14:06:57.465Z,23.20
2022-11-04T14:10:00.722Z,25.40
2022-11-04T14:13:28.334Z,27.10
2022-11-04T14:16:39.103Z,24.77
2022-11-04T14:19:57.997Z,23.33
2022-11-04T14:23:09.105Z,24.17
2022-11-04T14:26:24.249Z,23.43
2022-11-04T14:29:28.182Z,26.87
2022-11-04T14:32:41.779Z,24.38
2022-11-04T14:35:44.098Z,24.17
2022-11-04T14:39:01.946Z,24.10
2022-11-04T14:42:06.785Z,24.27
2022-11-04T14:45:38.212Z,23.90
2022-11-04T14:48:51.969Z,22.10
2022-11-04T14:51:54.503Z,23.70
2022-11-04T14:55:05.273Z,23.65
2022-11-04T14:58:26.241Z,24.10
2022-11-04T15:01:34.994Z,24.70
2022-11-04T15:04:37.759Z,22.92
2022-11-04T15:07:41.112Z,25.45
2022-11-04T15:10:50.029Z,23.65
2022-11-04T15:13:57.557Z,27.53
2022-11-04T15:17:00.340Z,23.30
2022-11-04T15:20:04.822Z,25.08
2022-11-04T15:23:12.303Z,24.70
2022-11-04T15:26:30.399Z,24.20
2022-11-04T15:29:33.234Z,23.37
2022-11-04T15:32:35.416Z,23.93
2022-11-04T15:35:43.551Z,27.73
2022-11-04T15:38:50.560Z,25.30
2022-11-04T15:42:16.320Z,24.20
2022-11-04T15:45:33.787Z,24.70
2022-11-04T15:48:38.609Z,22.63
2022-11-04T15:51:41.812Z,25.60
2022-11-04T15:54:48.510Z,25.13
2022-11-04T15:57:51.812Z,24.67
2022-11-04T16:00:56.024Z,25.47
2022-11-04T16:04:00.613Z,33.80
2022-11-04T16:07:10.717Z,21.45
2022-11-04T16:10:22.077Z,23.02
2022-11-04T16:13:25.828Z,23.63
2022-11-04T16:16:28.342Z,22.43
2022-11-04T16:19:32.261Z,25.97
2022-11-04T16:22:40.749Z,20.85
2022-11-04T16:25:43.272Z,23.77
2022-11-04T16:28:45.581Z,22.45
2022-11-04T16:32:13.856Z,20.87
2022-11-04T16:35:27.289Z,19.73
2022-11-04T16:38:29.502Z,21.48
2022-11-04T16:41:36.568Z,19.95
2022-11-04T16:44:39.465Z,20.63
2022-11-04T16:47:42.054Z,21.97
2022-11-04T16:50:45.228Z,20.17
2022-11-04T16:53:52.633Z,22.08
2022-11-04T16:56:55.900Z,19.55
2022-11-04T16:59:58.281Z,20.23
2022-11-04T17:03:02.454Z,19.80
2022-11-04T17:06:05.086Z,21.93
2022-11-04T17:09:19.269Z,21.17
2022-11-04T17:12:21.476Z,21.17
2022-11-04T17:15:23.788Z,19.27
2022-11-04T17:18:26.113Z,19.27
2022-11-04T17:21:28.617Z,20.87
2022-11-04T17:24:30.977Z,19.05
2022-11-04T17:27:33.204Z,18.80
2022-11-04T17:30:36.045Z,17.75
2022-11-04T17:33:38.304Z,18.53
2022-11-04T17:36:40.611Z,16.67
2022-11-04T17:39:42.867Z,18.33
2022-11-04T17:43:10.422Z,17.05
2022-11-04T17:46:33.633Z,18.83
2022-11-04T17:49:37.714Z,18.47
2022-11-04T17:52:42.158Z,17.60
2022-11-04T17:55:44.582Z,17.02
2022-11-04T17:58:47.706Z,18.48
2022-11-04T18:01:50.257Z,18.17
2022-11-04T18:04:52.545Z,17.20
2022-11-04T18:07:56.495Z,19.80
2022-11-04T18:10:59.933Z,18.60
2022-11-04T18:14:02.201Z,18.50
2022-11-04T18:17:05.634Z,16.63
2022-11-04T18:20:13.976Z,17.80
2022-11-04T18:23:16.610Z,16.80
2022-11-04T18:26:19.081Z,17.48
2022-11-04T18:29:21.538Z,15.95
2022-11-04T18:32:23.841Z,15.45
2022-11-04T18:35:26.109Z,15.93
2022-11-04T18:38:28.319Z,18.13
2022-11-04T18:41:30.555Z,18.80
2022-11-04T18:44:32.856Z,19.05
2022-11-04T18:47:35.107Z,15.75
2022-11-04T18:50:37.463Z,16.23
2022-11-04T18:53:39.977Z,18.00
2022-11-04T18:56:42.527Z,15.90
2022-11-04T18:59:45.783Z,14.90
2022-11-04T19:02:48.162Z,15.70
2022-11-04T19:05:50.520Z,16.97
2022-11-04T19:08:55.731Z,15.03
2022-11-04T19:12:16.600Z,18.33
2022-11-04T19:15:18.882Z,15.43
2022-11-04T19:18:21.314Z,15.45
2022-11-04T19:21:24.663Z,16.00
2022-11-04T19:24:28.307Z,15.93
2022-11-04T19:27:30.941Z,15.95
2022-11-04T19:30:34.263Z,15.50
2022-11-04T19:33:36.982Z,14.57
2022-11-04T19:36:39.206Z,14.73
2022-11-04T19:39:41.534Z,15.17
2022-11-04T19:43:02.347Z,14.65
2022-11-04T19:46:04.925Z,15.50
2022-11-04T19:49:08.796Z,14.32
2022-11-04T19:52:11.030Z,14.37
2022-11-04T19:55:13.454Z,14.27
2022-11-04T19:58:15.786Z,16.38
2022-11-04T20:01:19.137Z,14.70
2022-11-04T20:04:21.459Z,16.30
2022-11-04T20:07:23.698Z,15.60
2022-11-04T20:10:25.892Z,12.50
2022-11-04T20:13:46.737Z,13.98
2022-11-04T20:16:49.094Z,15.43
2022-11-04T20:19:51.329Z,14.32
2022-11-04T20:22:53.594Z,15.03
2022-11-04T20:25:56.095Z,15.53
2022-11-04T20:28:58.669Z,15.20
2022-11-04T20:32:00.995Z,16.77
2022-11-04T20:35:03.356Z,15.70
2022-11-04T20:38:05.609Z,16.70
2022-11-04T20:41:10.687Z,15.60
2022-11-04T20:44:14.701Z,14.23
2022-11-04T20:47:17.894Z,12.73
2022-11-04T20:50:20.163Z,13.18
2022-11-04T20:53:22.458Z,14.67
2022-11-04T20:56:25.379Z,12.97
2022-11-04T20:59:27.745Z,12.25
2022-11-04T21:02:30.073Z,14.40
2022-11-04T21:05:34.562Z,13.57
2022-11-04T21:08:37.264Z,14.73
2022-11-04T21:11:39.897Z,13.90
2022-11-04T21:14:42.086Z,13.13
2022-11-04T21:17:44.274Z,12.63
2022-11-04T21:20:47.895Z,12.93
2022-11-04T21:23:51.292Z,12.33
2022-11-04T21:26:53.743Z,13.53
2022-11-04T21:29:56.571Z,12.52
2022-11-04T21:32:58.827Z,14.43
2022-11-04T21:36:05.308Z,13.48
2022-11-04T21:39:10.795Z,12.97
2022-11-04T21:42:12.991Z,12.73
2022-11-04T21:45:15.313Z,15.10
2022-11-04T21:48:17.502Z,12.15
2022-11-04T21:51:22.459Z,13.15
2022-11-04T21:54:24.662Z,11.87
2022-11-04T21:57:26.858Z,12.37
2022-11-04T22:00:29.106Z,13.15
2022-11-04T22:03:31.730Z,12.63
2022-11-04T22:06:35.671Z,12.07
2022-11-04T22:09:38.183Z,13.17
2022-11-04T22:12:40.390Z,12.67
2022-11-04T22:16:01.047Z,13.00
2022-11-04T22:19:06.294Z,11.60
2022-11-04T22:22:08.528Z,13.38
2022-11-04T22:25:10.855Z,12.53
2022-11-04T22:28:15.428Z,12.57
2022-11-04T22:31:18.992Z,12.90
2022-11-04T22:34:21.211Z,12.85
2022-11-04T22:37:23.405Z,12.75
2022-11-04T22:40:26.042Z,12.23
2022-11-04T22:43:28.749Z,11.37
2022-11-04T22:46:33.176Z,13.48
2022-11-04T22:49:35.466Z,13.23
2022-11-04T22:52:37.661Z,10.82
2022-11-04T22:55:39.865Z,13.03
2022-11-04T22:58:42.141Z,12.03
2022-11-04T23:01:44.541Z,11.70
2022-11-04T23:04:46.904Z,12.07
2022-11-04T23:07:49.079Z,13.13
2022-11-04T23:11:14.909Z,11.90
2022-11-04T23:14:38.745Z,13.60
2022-11-04T23:17:59.426Z,11.68
2022-11-04T23:21:19.894Z,12.55
2022-11-04T23:24:40.810Z,12.68
2022-11-04T23:28:02.650Z,12.40
2022-11-04T23:31:04.974Z,13.13
2022-11-04T23:34:25.732Z,12.52
2022-11-04T23:37:28.028Z,12.57
2022-11-04T23:40:32.020Z,12.38
2022-11-04T23:43:35.392Z,12.20
2022-11-04T23:46:56.179Z,11.57
2022-11-04T23:50:17.025Z,13.02
2022-11-04T23:53:39.823Z,12.15
2022-11-04T23:57:00.624Z,11.43
